sensor_id;sensor_type;location;lat;lon;timestamp;temperature;humidity
4813;DHT22;2420;51.202;8.698;2023-07-30T00:00:35;15.90;1.00
4813;DHT22;2420;51.202;8.698;2023-07-30T00:03:00;15.80;1.00
4813;DHT22;2420;51.202;8.698;2023-07-30T00:05:26;15.80;1.00
4813;DHT22;2420;51.202;8.698;2023-07-30T00:07:51;15.70;1.00
4813;DHT22;2420;51.202;8.698;2023-07-30T00:10:17;15.70;1.00
4813;DHT22;2420;51.202;8.698;2023-07-30T00:12:43;15.60;1.00
4813;DHT22;2420;51.202;8.698;2023-07-30T00:15:09;15.80;1.00
4813;DHT22;2420;51.202;8.698;2023-07-30T00:17:34;15.70;1.00
4813;DHT22;2420;51.202;8.698;2023-07-30T00:20:00;15.70;1.00
4813;DHT22;2420;51.202;8.698;2023-07-30T00:22:26;15.60;1.00
4813;DHT22;2420;51.202;8.698;2023-07-30T00:24:51;15.50;1.00
4813;DHT22;2420;51.202;8.698;2023-07-30T00:27:17;15.60;1.00
4813;DHT22;2420;51.202;8.698;2023-07-30T00:29:42;15.50;1.00
4813;DHT22;2420;51.202;8.698;2023-07-30T00:32:08;15.50;1.00
4813;DHT22;2420;51.202;8.698;2023-07-30T00:34:33;15.40;1.00
4813;DHT22;2420;51.202;8.698;2023-07-30T00:36:59;15.20;1.00
4813;DHT22;2420;51.202;8.698;2023-07-30T00:39:24;15.20;1.00
4813;DHT22;2420;51.202;8.698;2023-07-30T00:41:50;15.20;1.00
4813;DHT22;2420;51.202;8.698;2023-07-30T00:44:16;15.20;1.00
4813;DHT22;2420;51.202;8.698;2023-07-30T00:46:41;15.30;1.00
4813;DHT22;2420;51.202;8.698;2023-07-30T00:49:07;15.30;1.00
4813;DHT22;2420;51.202;8.698;2023-07-30T00:51:33;15.30;1.00
4813;DHT22;2420;51.202;8.698;2023-07-30T00:54:00;15.20;1.00
4813;DHT22;2420;51.202;8.698;2023-07-30T00:56:26;15.20;1.00
4813;DHT22;2420;51.202;8.698;2023-07-30T00:58:52;15.20;1.00
4813;DHT22;2420;51.202;8.698;2023-07-30T01:01:18;15.20;1.00
4813;DHT22;2420;51.202;8.698;2023-07-30T01:03:44;15.20;1.00
4813;DHT22;2420;51.202;8.698;2023-07-30T01:06:10;15.20;1.00
4813;DHT22;2420;51.202;8.698;2023-07-30T01:08:36;15.20;1.00
4813;DHT22;2420;51.202;8.698;2023-07-30T01:11:03;15.10;1.00
4813;DHT22;2420;51.202;8.698;2023-07-30T01:13:30;15.10;1.00
4813;DHT22;2420;51.202;8.698;2023-07-30T01:15:57;15.30;1.00
4813;DHT22;2420;51.202;8.698;2023-07-30T01:18:23;15.20;1.00
4813;DHT22;2420;51.202;8.698;2023-07-30T01:20:52;15.10;1.00
4813;DHT22;2420;51.202;8.698;2023-07-30T01:23:17;15.10;1.00
4813;DHT22;2420;51.202;8.698;2023-07-30T01:25:44;15.20;1.00
4813;DHT22;2420;51.202;8.698;2023-07-30T01:28:15;15.20;1.00
4813;DHT22;2420;51.202;8.698;2023-07-30T01:30:43;15.20;1.00
4813;DHT22;2420;51.202;8.698;2023-07-30T01:33:11;15.20;1.00
4813;DHT22;2420;51.202;8.698;2023-07-30T01:35:38;15.30;1.00
4813;DHT22;2420;51.202;8.698;2023-07-30T01:38:03;15.40;1.00
4813;DHT22;2420;51.202;8.698;2023-07-30T01:40:31;15.50;1.00
4813;DHT22;2420;51.202;8.698;2023-07-30T01:42:57;15.50;1.00
4813;DHT22;2420;51.202;8.698;2023-07-30T01:45:23;15.50;1.00
4813;DHT22;2420;51.202;8.698;2023-07-30T01:47:48;15.50;1.00
4813;DHT22;2420;51.202;8.698;2023-07-30T01:50:14;15.50;1.00
4813;DHT22;2420;51.202;8.698;2023-07-30T01:52:40;15.50;1.00
4813;DHT22;2420;51.202;8.698;2023-07-30T01:55:06;15.40;1.00
4813;DHT22;2420;51.202;8.698;2023-07-30T01:57:31;15.50;1.00
4813;DHT22;2420;51.202;8.698;2023-07-30T01:59:57;15.40;1.00
4813;DHT22;2420;51.202;8.698;2023-07-30T02:02:22;15.40;1.00
4813;DHT22;2420;51.202;8.698;2023-07-30T02:04:48;15.30;1.00
4813;DHT22;2420;51.202;8.698;2023-07-30T02:07:14;15.20;1.00
4813;DHT22;2420;51.202;8.698;2023-07-30T02:09:39;15.20;1.00
4813;DHT22;2420;51.202;8.698;2023-07-30T02:12:05;15.20;1.00
4813;DHT22;2420;51.202;8.698;2023-07-30T02:14:31;15.10;1.00
4813;DHT22;2420;51.202;8.698;2023-07-30T02:16:56;15.00;1.00
4813;DHT22;2420;51.202;8.698;2023-07-30T02:19:22;15.00;1.00
4813;DHT22;2420;51.202;8.698;2023-07-30T02:21:47;14.90;1.00
4813;DHT22;2420;51.202;8.698;2023-07-30T02:24:13;14.90;1.00
4813;DHT22;2420;51.202;8.698;2023-07-30T02:26:39;14.90;1.00
4813;DHT22;2420;51.202;8.698;2023-07-30T02:29:04;15.00;1.00
4813;DHT22;2420;51.202;8.698;2023-07-30T02:31:30;15.00;1.00
4813;DHT22;2420;51.202;8.698;2023-07-30T02:33:56;14.90;1.00
4813;DHT22;2420;51.202;8.698;2023-07-30T02:36:23;14.90;1.00
4813;DHT22;2420;51.202;8.698;2023-07-30T02:38:49;14.80;1.00
4813;DHT22;2420;51.202;8.698;2023-07-30T02:41:14;14.80;1.00
4813;DHT22;2420;51.202;8.698;2023-07-30T02:43:40;14.80;1.00
4813;DHT22;2420;51.202;8.698;2023-07-30T02:46:05;15.00;1.00
4813;DHT22;2420;51.202;8.698;2023-07-30T02:48:32;14.80;1.00
4813;DHT22;2420;51.202;8.698;2023-07-30T02:50:58;14.70;1.00
4813;DHT22;2420;51.202;8.698;2023-07-30T02:53:23;14.90;1.00
4813;DHT22;2420;51.202;8.698;2023-07-30T02:55:49;14.70;1.00
4813;DHT22;2420;51.202;8.698;2023-07-30T02:58:14;14.70;1.00
4813;DHT22;2420;51.202;8.698;2023-07-30T03:00:40;14.80;1.00
4813;DHT22;2420;51.202;8.698;2023-07-30T03:03:05;14.70;1.00
4813;DHT22;2420;51.202;8.698;2023-07-30T03:05:31;14.70;1.00
4813;DHT22;2420;51.202;8.698;2023-07-30T03:07:57;14.70;1.00
4813;DHT22;2420;51.202;8.698;2023-07-30T03:10:22;14.60;1.00
4813;DHT22;2420;51.202;8.698;2023-07-30T03:12:48;14.50;1.00
4813;DHT22;2420;51.202;8.698;2023-07-30T03:15:13;14.40;1.00
4813;DHT22;2420;51.202;8.698;2023-07-30T03:17:39;14.50;1.00
4813;DHT22;2420;51.202;8.698;2023-07-30T03:20:05;14.40;1.00
4813;DHT22;2420;51.202;8.698;2023-07-30T03:22:31;14.40;1.00
4813;DHT22;2420;51.202;8.698;2023-07-30T03:24:56;14.30;1.00
4813;DHT22;2420;51.202;8.698;2023-07-30T03:27:22;14.20;1.00
4813;DHT22;2420;51.202;8.698;2023-07-30T03:29:47;14.20;1.00
4813;DHT22;2420;51.202;8.698;2023-07-30T03:32:13;14.20;1.00
4813;DHT22;2420;51.202;8.698;2023-07-30T03:34:38;14.20;1.00
4813;DHT22;2420;51.202;8.698;2023-07-30T03:37:04;14.40;1.00
4813;DHT22;2420;51.202;8.698;2023-07-30T03:39:30;14.30;1.00
4813;DHT22;2420;51.202;8.698;2023-07-30T03:41:55;14.20;1.00
4813;DHT22;2420;51.202;8.698;2023-07-30T03:44:21;14.10;1.00
4813;DHT22;2420;51.202;8.698;2023-07-30T03:46:46;14.10;1.00
4813;DHT22;2420;51.202;8.698;2023-07-30T03:49:12;14.00;1.00
4813;DHT22;2420;51.202;8.698;2023-07-30T03:51:37;14.00;1.00
4813;DHT22;2420;51.202;8.698;2023-07-30T03:54:06;14.00;1.00
4813;DHT22;2420;51.202;8.698;2023-07-30T03:56:31;14.00;1.00
4813;DHT22;2420;51.202;8.698;2023-07-30T03:58:57;14.00;1.00
4813;DHT22;2420;51.202;8.698;2023-07-30T04:01:22;13.90;1.00
4813;DHT22;2420;51.202;8.698;2023-07-30T04:03:48;13.80;1.00
4813;DHT22;2420;51.202;8.698;2023-07-30T04:06:13;13.80;1.00
4813;DHT22;2420;51.202;8.698;2023-07-30T04:08:39;13.80;1.00
4813;DHT22;2420;51.202;8.698;2023-07-30T04:11:05;13.80;1.00
4813;DHT22;2420;51.202;8.698;2023-07-30T04:13:31;13.90;1.00
4813;DHT22;2420;51.202;8.698;2023-07-30T04:15:56;14.10;1.00
4813;DHT22;2420;51.202;8.698;2023-07-30T04:18:22;13.80;1.00
4813;DHT22;2420;51.202;8.698;2023-07-30T04:20:48;13.90;1.00
4813;DHT22;2420;51.202;8.698;2023-07-30T04:23:14;13.90;1.00
4813;DHT22;2420;51.202;8.698;2023-07-30T04:25:39;13.90;1.00
4813;DHT22;2420;51.202;8.698;2023-07-30T04:28:05;13.90;1.00
4813;DHT22;2420;51.202;8.698;2023-07-30T04:30:31;14.00;1.00
4813;DHT22;2420;51.202;8.698;2023-07-30T04:32:57;14.00;1.00
4813;DHT22;2420;51.202;8.698;2023-07-30T04:35:22;14.00;1.00
4813;DHT22;2420;51.202;8.698;2023-07-30T04:37:48;14.10;1.00
4813;DHT22;2420;51.202;8.698;2023-07-30T04:40:13;14.20;1.00
4813;DHT22;2420;51.202;8.698;2023-07-30T04:42:39;14.20;1.00
4813;DHT22;2420;51.202;8.698;2023-07-30T04:45:05;14.30;1.00
4813;DHT22;2420;51.202;8.698;2023-07-30T04:47:31;14.40;1.00
4813;DHT22;2420;51.202;8.698;2023-07-30T04:49:56;14.50;1.00
4813;DHT22;2420;51.202;8.698;2023-07-30T04:52:22;14.60;1.00
4813;DHT22;2420;51.202;8.698;2023-07-30T04:54:47;14.50;1.00
4813;DHT22;2420;51.202;8.698;2023-07-30T04:57:13;14.70;1.00
4813;DHT22;2420;51.202;8.698;2023-07-30T04:59:38;14.90;1.00
4813;DHT22;2420;51.202;8.698;2023-07-30T05:02:04;14.90;1.00
4813;DHT22;2420;51.202;8.698;2023-07-30T05:04:30;14.90;1.00
4813;DHT22;2420;51.202;8.698;2023-07-30T05:06:55;15.00;1.00
4813;DHT22;2420;51.202;8.698;2023-07-30T05:09:21;15.10;1.00
4813;DHT22;2420;51.202;8.698;2023-07-30T05:11:46;15.20;1.00
4813;DHT22;2420;51.202;8.698;2023-07-30T05:14:12;15.30;1.00
4813;DHT22;2420;51.202;8.698;2023-07-30T05:16:37;15.50;1.00
4813;DHT22;2420;51.202;8.698;2023-07-30T05:19:03;15.70;1.00
4813;DHT22;2420;51.202;8.698;2023-07-30T05:21:29;15.90;1.00
4813;DHT22;2420;51.202;8.698;2023-07-30T05:23:54;16.10;1.00
4813;DHT22;2420;51.202;8.698;2023-07-30T05:26:20;16.20;1.00
4813;DHT22;2420;51.202;8.698;2023-07-30T05:28:45;16.20;1.00
4813;DHT22;2420;51.202;8.698;2023-07-30T05:31:11;16.20;1.00
4813;DHT22;2420;51.202;8.698;2023-07-30T05:33:36;16.10;1.00
4813;DHT22;2420;51.202;8.698;2023-07-30T05:36:02;16.00;1.00
4813;DHT22;2420;51.202;8.698;2023-07-30T05:38:28;16.00;1.00
4813;DHT22;2420;51.202;8.698;2023-07-30T05:40:53;16.00;1.00
4813;DHT22;2420;51.202;8.698;2023-07-30T05:43:19;15.90;1.00
4813;DHT22;2420;51.202;8.698;2023-07-30T05:45:45;15.90;1.00
4813;DHT22;2420;51.202;8.698;2023-07-30T05:48:10;16.00;1.00
4813;DHT22;2420;51.202;8.698;2023-07-30T05:50:36;16.00;1.00
4813;DHT22;2420;51.202;8.698;2023-07-30T05:53:01;16.10;1.00
4813;DHT22;2420;51.202;8.698;2023-07-30T05:55:27;16.20;1.00
4813;DHT22;2420;51.202;8.698;2023-07-30T05:57:53;16.20;1.00
4813;DHT22;2420;51.202;8.698;2023-07-30T06:00:19;16.20;1.00
4813;DHT22;2420;51.202;8.698;2023-07-30T06:02:44;16.20;1.00
4813;DHT22;2420;51.202;8.698;2023-07-30T06:05:10;16.20;1.00
4813;DHT22;2420;51.202;8.698;2023-07-30T06:07:36;16.20;1.00
4813;DHT22;2420;51.202;8.698;2023-07-30T06:10:01;16.20;1.00
4813;DHT22;2420;51.202;8.698;2023-07-30T06:12:27;16.20;1.00
4813;DHT22;2420;51.202;8.698;2023-07-30T06:14:52;16.20;1.00
4813;DHT22;2420;51.202;8.698;2023-07-30T06:17:18;16.20;1.00
4813;DHT22;2420;51.202;8.698;2023-07-30T06:19:43;16.20;1.00
4813;DHT22;2420;51.202;8.698;2023-07-30T06:22:09;16.20;1.00
4813;DHT22;2420;51.202;8.698;2023-07-30T06:24:34;16.10;1.00
4813;DHT22;2420;51.202;8.698;2023-07-30T06:27:00;16.20;1.00
4813;DHT22;2420;51.202;8.698;2023-07-30T06:29:25;16.40;1.00
4813;DHT22;2420;51.202;8.698;2023-07-30T06:31:51;16.60;1.00
4813;DHT22;2420;51.202;8.698;2023-07-30T06:34:16;16.80;1.00
4813;DHT22;2420;51.202;8.698;2023-07-30T06:36:42;17.00;1.00
4813;DHT22;2420;51.202;8.698;2023-07-30T06:39:07;17.00;1.00
4813;DHT22;2420;51.202;8.698;2023-07-30T06:41:33;17.00;1.00
4813;DHT22;2420;51.202;8.698;2023-07-30T06:43:59;16.90;1.00
4813;DHT22;2420;51.202;8.698;2023-07-30T06:46:24;17.00;1.00
4813;DHT22;2420;51.202;8.698;2023-07-30T06:48:50;17.20;1.00
4813;DHT22;2420;51.202;8.698;2023-07-30T06:51:19;17.40;1.00
4813;DHT22;2420;51.202;8.698;2023-07-30T06:53:45;17.50;1.00
4813;DHT22;2420;51.202;8.698;2023-07-30T06:56:10;17.60;1.00
4813;DHT22;2420;51.202;8.698;2023-07-30T06:58:36;17.60;1.00
4813;DHT22;2420;51.202;8.698;2023-07-30T07:01:01;17.60;1.00
4813;DHT22;2420;51.202;8.698;2023-07-30T07:03:27;17.90;1.00
4813;DHT22;2420;51.202;8.698;2023-07-30T07:05:56;17.80;1.00
4813;DHT22;2420;51.202;8.698;2023-07-30T07:08:22;17.80;1.00
4813;DHT22;2420;51.202;8.698;2023-07-30T07:10:48;17.80;1.00
4813;DHT22;2420;51.202;8.698;2023-07-30T07:13:14;17.80;1.00
4813;DHT22;2420;51.202;8.698;2023-07-30T07:15:43;17.80;1.00
4813;DHT22;2420;51.202;8.698;2023-07-30T07:18:09;17.70;1.00
4813;DHT22;2420;51.202;8.698;2023-07-30T07:20:35;17.70;1.00
4813;DHT22;2420;51.202;8.698;2023-07-30T07:23:01;17.80;1.00
4813;DHT22;2420;51.202;8.698;2023-07-30T07:25:27;17.70;1.00
4813;DHT22;2420;51.202;8.698;2023-07-30T07:27:52;17.80;1.00
4813;DHT22;2420;51.202;8.698;2023-07-30T07:30:18;17.90;1.00
4813;DHT22;2420;51.202;8.698;2023-07-30T07:32:46;17.90;1.00
4813;DHT22;2420;51.202;8.698;2023-07-30T07:35:16;18.10;1.00
4813;DHT22;2420;51.202;8.698;2023-07-30T07:37:41;18.10;1.00
4813;DHT22;2420;51.202;8.698;2023-07-30T07:40:07;18.20;1.00
4813;DHT22;2420;51.202;8.698;2023-07-30T07:42:35;18.20;1.00
4813;DHT22;2420;51.202;8.698;2023-07-30T07:45:00;18.10;1.00
4813;DHT22;2420;51.202;8.698;2023-07-30T07:47:26;18.10;1.00
4813;DHT22;2420;51.202;8.698;2023-07-30T07:49:51;17.80;1.00
4813;DHT22;2420;51.202;8.698;2023-07-30T07:52:17;17.80;1.00
4813;DHT22;2420;51.202;8.698;2023-07-30T07:54:43;17.80;1.00
4813;DHT22;2420;51.202;8.698;2023-07-30T07:57:08;17.90;1.00
4813;DHT22;2420;51.202;8.698;2023-07-30T07:59:34;17.90;1.00
4813;DHT22;2420;51.202;8.698;2023-07-30T08:01:59;18.10;1.00
4813;DHT22;2420;51.202;8.698;2023-07-30T08:04:25;18.00;1.00
4813;DHT22;2420;51.202;8.698;2023-07-30T08:06:50;17.90;1.00
4813;DHT22;2420;51.202;8.698;2023-07-30T08:09:16;17.90;1.00
4813;DHT22;2420;51.202;8.698;2023-07-30T08:11:42;17.80;1.00
4813;DHT22;2420;51.202;8.698;2023-07-30T08:14:07;17.70;1.00
4813;DHT22;2420;51.202;8.698;2023-07-30T08:16:33;17.70;1.00
4813;DHT22;2420;51.202;8.698;2023-07-30T08:18:58;17.50;1.00
4813;DHT22;2420;51.202;8.698;2023-07-30T08:21:25;17.50;1.00
4813;DHT22;2420;51.202;8.698;2023-07-30T08:23:51;17.50;1.00
4813;DHT22;2420;51.202;8.698;2023-07-30T08:26:16;17.30;1.00
4813;DHT22;2420;51.202;8.698;2023-07-30T08:28:42;17.30;1.00
4813;DHT22;2420;51.202;8.698;2023-07-30T08:31:07;17.10;1.00
4813;DHT22;2420;51.202;8.698;2023-07-30T08:33:33;17.00;1.00
4813;DHT22;2420;51.202;8.698;2023-07-30T08:35:59;16.90;1.00
4813;DHT22;2420;51.202;8.698;2023-07-30T08:38:25;17.00;1.00
4813;DHT22;2420;51.202;8.698;2023-07-30T08:40:51;16.90;1.00
4813;DHT22;2420;51.202;8.698;2023-07-30T08:43:18;16.80;1.00
4813;DHT22;2420;51.202;8.698;2023-07-30T08:45:44;16.70;1.00
4813;DHT22;2420;51.202;8.698;2023-07-30T08:48:10;16.70;1.00
4813;DHT22;2420;51.202;8.698;2023-07-30T08:50:36;16.60;1.00
4813;DHT22;2420;51.202;8.698;2023-07-30T08:53:03;16.70;1.00
4813;DHT22;2420;51.202;8.698;2023-07-30T08:55:33;16.80;1.00
4813;DHT22;2420;51.202;8.698;2023-07-30T08:58:01;16.80;1.00
4813;DHT22;2420;51.202;8.698;2023-07-30T09:00:31;16.70;1.00
4813;DHT22;2420;51.202;8.698;2023-07-30T09:02:59;16.70;1.00
4813;DHT22;2420;51.202;8.698;2023-07-30T09:05:26;16.70;1.00
4813;DHT22;2420;51.202;8.698;2023-07-30T09:07:54;16.70;1.00
4813;DHT22;2420;51.202;8.698;2023-07-30T09:10:20;16.70;1.00
4813;DHT22;2420;51.202;8.698;2023-07-30T09:12:55;16.80;1.00
4813;DHT22;2420;51.202;8.698;2023-07-30T09:15:35;16.80;1.00
4813;DHT22;2420;51.202;8.698;2023-07-30T09:18:03;16.70;1.00
4813;DHT22;2420;51.202;8.698;2023-07-30T09:20:37;16.70;1.00
4813;DHT22;2420;51.202;8.698;2023-07-30T09:23:03;16.90;1.00
4813;DHT22;2420;51.202;8.698;2023-07-30T09:25:28;16.60;1.00
4813;DHT22;2420;51.202;8.698;2023-07-30T09:27:54;16.60;1.00
4813;DHT22;2420;51.202;8.698;2023-07-30T09:30:24;16.60;1.00
4813;DHT22;2420;51.202;8.698;2023-07-30T09:32:52;16.60;1.00
4813;DHT22;2420;51.202;8.698;2023-07-30T09:35:21;16.70;1.00
4813;DHT22;2420;51.202;8.698;2023-07-30T09:37:47;16.60;1.00
4813;DHT22;2420;51.202;8.698;2023-07-30T09:40:14;16.50;1.00
4813;DHT22;2420;51.202;8.698;2023-07-30T09:42:44;16.50;1.00
4813;DHT22;2420;51.202;8.698;2023-07-30T09:45:21;16.50;1.00
4813;DHT22;2420;51.202;8.698;2023-07-30T09:47:53;16.50;1.00
4813;DHT22;2420;51.202;8.698;2023-07-30T09:50:19;16.50;1.00
4813;DHT22;2420;51.202;8.698;2023-07-30T09:52:45;16.50;1.00
4813;DHT22;2420;51.202;8.698;2023-07-30T09:55:11;16.40;1.00
4813;DHT22;2420;51.202;8.698;2023-07-30T09:57:37;16.40;1.00
4813;DHT22;2420;51.202;8.698;2023-07-30T10:00:05;16.40;1.00
4813;DHT22;2420;51.202;8.698;2023-07-30T10:02:32;16.40;1.00
4813;DHT22;2420;51.202;8.698;2023-07-30T10:05:02;16.40;1.00
4813;DHT22;2420;51.202;8.698;2023-07-30T10:07:30;16.50;1.00
4813;DHT22;2420;51.202;8.698;2023-07-30T10:09:59;16.50;1.00
4813;DHT22;2420;51.202;8.698;2023-07-30T10:12:29;16.30;1.00
4813;DHT22;2420;51.202;8.698;2023-07-30T10:14:56;16.30;1.00
4813;DHT22;2420;51.202;8.698;2023-07-30T10:17:22;16.40;1.00
4813;DHT22;2420;51.202;8.698;2023-07-30T10:19:49;16.40;1.00
4813;DHT22;2420;51.202;8.698;2023-07-30T10:27:27;16.40;1.00
4813;DHT22;2420;51.202;8.698;2023-07-30T10:30:13;16.50;1.00
4813;DHT22;2420;51.202;8.698;2023-07-30T10:32:41;16.40;1.00
4813;DHT22;2420;51.202;8.698;2023-07-30T10:35:07;16.30;1.00
4813;DHT22;2420;51.202;8.698;2023-07-30T10:37:32;16.20;1.00
4813;DHT22;2420;51.202;8.698;2023-07-30T10:39:58;16.20;1.00
4813;DHT22;2420;51.202;8.698;2023-07-30T10:42:24;16.30;1.00
4813;DHT22;2420;51.202;8.698;2023-07-30T10:44:58;16.30;1.00
4813;DHT22;2420;51.202;8.698;2023-07-30T10:47:27;16.30;1.00
4813;DHT22;2420;51.202;8.698;2023-07-30T10:49:52;16.30;1.00
4813;DHT22;2420;51.202;8.698;2023-07-30T10:52:20;16.30;1.00
4813;DHT22;2420;51.202;8.698;2023-07-30T10:54:49;16.40;1.00
4813;DHT22;2420;51.202;8.698;2023-07-30T10:57:14;16.40;1.00
4813;DHT22;2420;51.202;8.698;2023-07-30T10:59:41;16.50;1.00
4813;DHT22;2420;51.202;8.698;2023-07-30T11:02:07;16.60;1.00
4813;DHT22;2420;51.202;8.698;2023-07-30T11:04:34;16.70;1.00
4813;DHT22;2420;51.202;8.698;2023-07-30T11:07:00;16.90;1.00
4813;DHT22;2420;51.202;8.698;2023-07-30T11:09:27;16.90;1.00
4813;DHT22;2420;51.202;8.698;2023-07-30T11:11:54;17.10;1.00
4813;DHT22;2420;51.202;8.698;2023-07-30T11:14:22;17.10;1.00
4813;DHT22;2420;51.202;8.698;2023-07-30T11:16:55;17.20;1.00
4813;DHT22;2420;51.202;8.698;2023-07-30T11:19:21;17.30;1.00
4813;DHT22;2420;51.202;8.698;2023-07-30T11:21:52;17.30;1.00
4813;DHT22;2420;51.202;8.698;2023-07-30T11:24:19;17.30;1.00
4813;DHT22;2420;51.202;8.698;2023-07-30T11:26:57;17.60;1.00
4813;DHT22;2420;51.202;8.698;2023-07-30T11:29:23;17.80;1.00
4813;DHT22;2420;51.202;8.698;2023-07-30T11:31:49;17.90;1.00
4813;DHT22;2420;51.202;8.698;2023-07-30T11:34:15;18.00;1.00
4813;DHT22;2420;51.202;8.698;2023-07-30T11:36:42;18.20;1.00
4813;DHT22;2420;51.202;8.698;2023-07-30T11:39:08;18.20;1.00
4813;DHT22;2420;51.202;8.698;2023-07-30T11:41:34;18.30;1.00
4813;DHT22;2420;51.202;8.698;2023-07-30T11:44:00;18.30;1.00
4813;DHT22;2420;51.202;8.698;2023-07-30T11:46:26;18.20;1.00
4813;DHT22;2420;51.202;8.698;2023-07-30T11:48:53;18.10;1.00
4813;DHT22;2420;51.202;8.698;2023-07-30T11:51:24;18.00;1.00
4813;DHT22;2420;51.202;8.698;2023-07-30T11:53:52;18.30;1.00
4813;DHT22;2420;51.202;8.698;2023-07-30T11:56:30;18.60;1.00
4813;DHT22;2420;51.202;8.698;2023-07-30T11:59:09;18.70;1.00
4813;DHT22;2420;51.202;8.698;2023-07-30T12:01:36;19.10;1.00
4813;DHT22;2420;51.202;8.698;2023-07-30T12:04:04;19.50;1.00
4813;DHT22;2420;51.202;8.698;2023-07-30T12:06:49;19.40;1.00
4813;DHT22;2420;51.202;8.698;2023-07-30T12:09:20;19.30;1.00
4813;DHT22;2420;51.202;8.698;2023-07-30T12:11:58;19.30;1.00
4813;DHT22;2420;51.202;8.698;2023-07-30T12:14:26;19.10;1.00
4813;DHT22;2420;51.202;8.698;2023-07-30T12:16:57;19.20;1.00
4813;DHT22;2420;51.202;8.698;2023-07-30T12:19:22;19.30;1.00
4813;DHT22;2420;51.202;8.698;2023-07-30T12:21:48;19.20;1.00
4813;DHT22;2420;51.202;8.698;2023-07-30T12:24:13;19.10;1.00
4813;DHT22;2420;51.202;8.698;2023-07-30T12:26:39;19.20;1.00
4813;DHT22;2420;51.202;8.698;2023-07-30T12:29:04;19.50;1.00
4813;DHT22;2420;51.202;8.698;2023-07-30T12:31:30;19.80;1.00
4813;DHT22;2420;51.202;8.698;2023-07-30T12:33:56;20.00;1.00
4813;DHT22;2420;51.202;8.698;2023-07-30T12:36:21;20.10;1.00
4813;DHT22;2420;51.202;8.698;2023-07-30T12:38:47;20.30;1.00
4813;DHT22;2420;51.202;8.698;2023-07-30T12:41:12;20.40;1.00
4813;DHT22;2420;51.202;8.698;2023-07-30T12:43:38;20.50;1.00
4813;DHT22;2420;51.202;8.698;2023-07-30T12:46:03;20.60;1.00
4813;DHT22;2420;51.202;8.698;2023-07-30T12:48:29;20.80;1.00
4813;DHT22;2420;51.202;8.698;2023-07-30T12:50:54;21.00;1.00
4813;DHT22;2420;51.202;8.698;2023-07-30T12:53:20;21.00;1.00
4813;DHT22;2420;51.202;8.698;2023-07-30T12:55:46;21.10;1.00
4813;DHT22;2420;51.202;8.698;2023-07-30T12:58:11;21.00;1.00
4813;DHT22;2420;51.202;8.698;2023-07-30T13:00:37;21.10;1.00
4813;DHT22;2420;51.202;8.698;2023-07-30T13:03:02;21.10;1.00
4813;DHT22;2420;51.202;8.698;2023-07-30T13:05:28;21.10;1.00
4813;DHT22;2420;51.202;8.698;2023-07-30T13:07:54;21.20;1.00
4813;DHT22;2420;51.202;8.698;2023-07-30T13:10:19;21.30;1.00
4813;DHT22;2420;51.202;8.698;2023-07-30T13:12:45;21.20;1.00
4813;DHT22;2420;51.202;8.698;2023-07-30T13:15:11;21.30;1.00
4813;DHT22;2420;51.202;8.698;2023-07-30T13:17:37;21.60;1.00
4813;DHT22;2420;51.202;8.698;2023-07-30T13:20:04;21.60;1.00
4813;DHT22;2420;51.202;8.698;2023-07-30T13:22:31;21.40;1.00
4813;DHT22;2420;51.202;8.698;2023-07-30T13:24:56;21.30;1.00
4813;DHT22;2420;51.202;8.698;2023-07-30T13:27:22;21.40;1.00
4813;DHT22;2420;51.202;8.698;2023-07-30T13:29:47;21.20;1.00
4813;DHT22;2420;51.202;8.698;2023-07-30T13:32:14;21.20;1.00
4813;DHT22;2420;51.202;8.698;2023-07-30T13:34:40;21.10;1.00
4813;DHT22;2420;51.202;8.698;2023-07-30T13:37:06;21.20;1.00
4813;DHT22;2420;51.202;8.698;2023-07-30T13:39:31;21.10;1.00
4813;DHT22;2420;51.202;8.698;2023-07-30T13:41:57;21.10;1.00
4813;DHT22;2420;51.202;8.698;2023-07-30T13:44:22;21.10;1.00
4813;DHT22;2420;51.202;8.698;2023-07-30T13:46:48;21.00;1.00
4813;DHT22;2420;51.202;8.698;2023-07-30T13:49:14;21.10;1.00
4813;DHT22;2420;51.202;8.698;2023-07-30T13:54:09;21.10;1.00
4813;DHT22;2420;51.202;8.698;2023-07-30T13:56:35;21.20;1.00
4813;DHT22;2420;51.202;8.698;2023-07-30T13:59:01;21.30;1.00
4813;DHT22;2420;51.202;8.698;2023-07-30T14:01:27;21.20;1.00
4813;DHT22;2420;51.202;8.698;2023-07-30T14:03:53;21.30;1.00
4813;DHT22;2420;51.202;8.698;2023-07-30T14:06:18;21.20;1.00
4813;DHT22;2420;51.202;8.698;2023-07-30T14:08:44;21.20;1.00
4813;DHT22;2420;51.202;8.698;2023-07-30T14:11:10;21.20;1.00
4813;DHT22;2420;51.202;8.698;2023-07-30T14:13:35;21.00;1.00
4813;DHT22;2420;51.202;8.698;2023-07-30T14:16:01;20.80;1.00
4813;DHT22;2420;51.202;8.698;2023-07-30T14:18:26;20.50;1.00
4813;DHT22;2420;51.202;8.698;2023-07-30T14:20:52;20.40;1.00
4813;DHT22;2420;51.202;8.698;2023-07-30T14:23:18;20.10;1.00
4813;DHT22;2420;51.202;8.698;2023-07-30T14:25:44;19.80;1.00
4813;DHT22;2420;51.202;8.698;2023-07-30T14:28:09;19.70;1.00
4813;DHT22;2420;51.202;8.698;2023-07-30T14:30:35;19.60;1.00
4813;DHT22;2420;51.202;8.698;2023-07-30T14:33:01;19.70;1.00
4813;DHT22;2420;51.202;8.698;2023-07-30T14:35:27;19.70;1.00
4813;DHT22;2420;51.202;8.698;2023-07-30T14:37:53;19.60;1.00
4813;DHT22;2420;51.202;8.698;2023-07-30T14:40:18;19.80;1.00
4813;DHT22;2420;51.202;8.698;2023-07-30T14:42:44;20.10;1.00
4813;DHT22;2420;51.202;8.698;2023-07-30T14:45:10;20.20;1.00
4813;DHT22;2420;51.202;8.698;2023-07-30T14:47:35;20.20;1.00
4813;DHT22;2420;51.202;8.698;2023-07-30T14:50:01;20.20;1.00
4813;DHT22;2420;51.202;8.698;2023-07-30T14:52:27;20.20;1.00
4813;DHT22;2420;51.202;8.698;2023-07-30T14:54:53;20.20;1.00
4813;DHT22;2420;51.202;8.698;2023-07-30T14:57:19;20.20;1.00
4813;DHT22;2420;51.202;8.698;2023-07-30T14:59:44;20.20;1.00
4813;DHT22;2420;51.202;8.698;2023-07-30T15:02:10;20.10;1.00
4813;DHT22;2420;51.202;8.698;2023-07-30T15:04:36;20.00;1.00
4813;DHT22;2420;51.202;8.698;2023-07-30T15:07:02;19.90;1.00
4813;DHT22;2420;51.202;8.698;2023-07-30T15:09:27;19.70;1.00
4813;DHT22;2420;51.202;8.698;2023-07-30T15:11:59;19.60;1.00
4813;DHT22;2420;51.202;8.698;2023-07-30T15:14:24;19.50;1.00
4813;DHT22;2420;51.202;8.698;2023-07-30T15:16:50;19.60;1.00
4813;DHT22;2420;51.202;8.698;2023-07-30T15:19:15;19.70;1.00
4813;DHT22;2420;51.202;8.698;2023-07-30T15:21:41;19.70;1.00
4813;DHT22;2420;51.202;8.698;2023-07-30T15:24:06;19.90;1.00
4813;DHT22;2420;51.202;8.698;2023-07-30T15:26:32;20.00;1.00
4813;DHT22;2420;51.202;8.698;2023-07-30T15:28:58;19.90;1.00
4813;DHT22;2420;51.202;8.698;2023-07-30T15:31:25;20.00;1.00
4813;DHT22;2420;51.202;8.698;2023-07-30T15:33:51;20.10;1.00
4813;DHT22;2420;51.202;8.698;2023-07-30T15:36:18;20.10;1.00
4813;DHT22;2420;51.202;8.698;2023-07-30T15:38:44;20.30;1.00
4813;DHT22;2420;51.202;8.698;2023-07-30T15:41:09;20.20;1.00
4813;DHT22;2420;51.202;8.698;2023-07-30T15:43:35;20.10;1.00
4813;DHT22;2420;51.202;8.698;2023-07-30T15:46:01;20.00;1.00
4813;DHT22;2420;51.202;8.698;2023-07-30T15:48:30;19.80;1.00
4813;DHT22;2420;51.202;8.698;2023-07-30T15:51:00;19.90;1.00
4813;DHT22;2420;51.202;8.698;2023-07-30T15:53:26;19.90;1.00
4813;DHT22;2420;51.202;8.698;2023-07-30T15:55:51;19.80;1.00
4813;DHT22;2420;51.202;8.698;2023-07-30T15:58:17;19.70;1.00
4813;DHT22;2420;51.202;8.698;2023-07-30T16:00:42;19.70;1.00
4813;DHT22;2420;51.202;8.698;2023-07-30T16:03:08;19.80;1.00
4813;DHT22;2420;51.202;8.698;2023-07-30T16:05:33;19.80;1.00
4813;DHT22;2420;51.202;8.698;2023-07-30T16:07:59;19.80;1.00
4813;DHT22;2420;51.202;8.698;2023-07-30T16:10:24;19.90;1.00
4813;DHT22;2420;51.202;8.698;2023-07-30T16:12:50;19.90;1.00
4813;DHT22;2420;51.202;8.698;2023-07-30T16:15:15;20.00;1.00
4813;DHT22;2420;51.202;8.698;2023-07-30T16:17:41;19.90;1.00